sensor_id;sensor_type;location;lat;lon;timestamp;pressure;altitude;pressure_sealevel;temperature;humidity
84188;BME280;74316;45.648;13.764;2023-12-20T00:00:37;101468.91;;;21.73;40.95
84188;BME280;74316;45.648;13.764;2023-12-20T00:03:03;101467.06;;;21.73;40.75
84188;BME280;74316;45.648;13.764;2023-12-20T00:05:29;101461.06;;;21.71;40.89
84188;BME280;74316;45.648;13.764;2023-12-20T00:07:57;101455.91;;;21.70;41.03
84188;BME280;74316;45.648;13.764;2023-12-20T00:10:22;101455.91;;;21.70;40.83
84188;BME280;74316;45.648;13.764;2023-12-20T00:12:48;101458.59;;;21.70;40.64
84188;BME280;74316;45.648;13.764;2023-12-20T00:15:13;101448.88;;;21.69;40.51
84188;BME280;74316;45.648;13.764;2023-12-20T00:17:39;101440.00;;;21.68;40.95
84188;BME280;74316;45.648;13.764;2023-12-20T00:20:04;101436.50;;;21.68;40.63
84188;BME280;74316;45.648;13.764;2023-12-20T00:22:31;101427.78;;;21.66;40.72
84188;BME280;74316;45.648;13.764;2023-12-20T00:24:57;101417.91;;;21.66;40.25
84188;BME280;74316;45.648;13.764;2023-12-20T00:27:22;101413.53;;;21.65;40.67
84188;BME280;74316;45.648;13.764;2023-12-20T00:29:48;101410.03;;;21.65;40.69
84188;BME280;74316;45.648;13.764;2023-12-20T00:32:15;101408.38;;;21.64;40.98
84188;BME280;74316;45.648;13.764;2023-12-20T00:34:42;101405.69;;;21.64;40.30
84188;BME280;74316;45.648;13.764;2023-12-20T00:37:07;101401.38;;;21.63;40.24
84188;BME280;74316;45.648;13.764;2023-12-20T00:39:33;101411.28;;;21.62;40.92
84188;BME280;74316;45.648;13.764;2023-12-20T00:41:58;101408.81;;;21.61;40.94
84188;BME280;74316;45.648;13.764;2023-12-20T00:44:24;101395.38;;;21.61;40.14
84188;BME280;74316;45.648;13.764;2023-12-20T00:46:49;101399.09;;;21.60;40.41
84188;BME280;74316;45.648;13.764;2023-12-20T00:49:14;101389.41;;;21.59;40.86
84188;BME280;74316;45.648;13.764;2023-12-20T00:51:40;101387.75;;;21.58;40.90
84188;BME280;74316;45.648;13.764;2023-12-20T00:54:05;101382.38;;;21.58;40.48
84188;BME280;74316;45.648;13.764;2023-12-20T00:56:30;101379.03;;;21.55;39.88
84188;BME280;74316;45.648;13.764;2023-12-20T00:58:56;101378.22;;;21.55;39.83
84188;BME280;74316;45.648;13.764;2023-12-20T01:01:21;101370.38;;;21.53;40.05
84188;BME280;74316;45.648;13.764;2023-12-20T01:03:47;101364.19;;;21.53;40.12
84188;BME280;74316;45.648;13.764;2023-12-20T01:06:13;101358.00;;;21.52;39.26
84188;BME280;74316;45.648;13.764;2023-12-20T01:08:38;101366.25;;;21.51;40.09
84188;BME280;74316;45.648;13.764;2023-12-20T01:11:04;101360.06;;;21.50;40.03
84188;BME280;74316;45.648;13.764;2023-12-20T01:13:30;101363.78;;;21.49;39.78
84188;BME280;74316;45.648;13.764;2023-12-20T01:15:56;101362.97;;;21.49;39.76
84188;BME280;74316;45.648;13.764;2023-12-20T01:18:21;101367.50;;;21.48;40.35
84188;BME280;74316;45.648;13.764;2023-12-20T01:20:47;101358.84;;;21.46;39.66
84188;BME280;74316;45.648;13.764;2023-12-20T01:23:12;101360.47;;;21.47;40.10
84188;BME280;74316;45.648;13.764;2023-12-20T01:25:37;101354.47;;;21.45;39.80
84188;BME280;74316;45.648;13.764;2023-12-20T01:28:03;101353.47;;;21.46;40.02
84188;BME280;74316;45.648;13.764;2023-12-20T01:30:28;101347.44;;;21.44;39.71
84188;BME280;74316;45.648;13.764;2023-12-20T01:32:54;101344.75;;;21.44;39.59
84188;BME280;74316;45.648;13.764;2023-12-20T01:35:19;101348.47;;;21.43;40.01
84188;BME280;74316;45.648;13.764;2023-12-20T01:37:45;101339.81;;;21.41;40.16
84188;BME280;74316;45.648;13.764;2023-12-20T01:40:10;101336.09;;;21.42;39.74
84188;BME280;74316;45.648;13.764;2023-12-20T01:42:36;101327.44;;;21.40;39.40
84188;BME280;74316;45.648;13.764;2023-12-20T01:45:01;101322.88;;;21.41;39.32
84188;BME280;74316;45.648;13.764;2023-12-20T01:47:27;101322.06;;;21.40;39.87
84188;BME280;74316;45.648;13.764;2023-12-20T01:49:53;101321.25;;;21.40;39.70
84188;BME280;74316;45.648;13.764;2023-12-20T01:52:19;101318.75;;;21.38;39.23
84188;BME280;74316;45.648;13.764;2023-12-20T01:54:45;101311.75;;;21.37;39.36
84188;BME280;74316;45.648;13.764;2023-12-20T01:57:12;101308.41;;;21.35;38.85
84188;BME280;74316;45.648;13.764;2023-12-20T01:59:39;101303.06;;;21.35;39.01
84188;BME280;74316;45.648;13.764;2023-12-20T02:02:05;101297.69;;;21.35;38.85
84188;BME280;74316;45.648;13.764;2023-12-20T02:04:31;101296.03;;;21.34;39.73
84188;BME280;74316;45.648;13.764;2023-12-20T02:06:57;101289.00;;;21.33;39.13
84188;BME280;74316;45.648;13.764;2023-12-20T02:09:24;101285.28;;;21.34;39.80
84188;BME280;74316;45.648;13.764;2023-12-20T02:11:49;101272.31;;;21.31;39.64
84188;BME280;74316;45.648;13.764;2023-12-20T02:14:14;101260.53;;;21.32;39.57
84188;BME280;74316;45.648;13.764;2023-12-20T02:16:40;101264.25;;;21.31;39.99
84188;BME280;74316;45.648;13.764;2023-12-20T02:19:13;101261.56;;;21.31;40.19
84188;BME280;74316;45.648;13.764;2023-12-20T02:21:38;101262.59;;;21.30;40.20
84188;BME280;74316;45.648;13.764;2023-12-20T02:24:04;101260.94;;;21.29;39.62
84188;BME280;74316;45.648;13.764;2023-12-20T02:26:31;101256.41;;;21.30;39.69
84188;BME280;74316;45.648;13.764;2023-12-20T02:28:56;101248.56;;;21.28;39.66
84188;BME280;74316;45.648;13.764;2023-12-20T02:31:23;101247.75;;;21.27;39.70
84188;BME280;74316;45.648;13.764;2023-12-20T02:33:48;101253.94;;;21.28;40.15
84188;BME280;74316;45.648;13.764;2023-12-20T02:36:14;101253.13;;;21.27;39.87
84188;BME280;74316;45.648;13.764;2023-12-20T02:38:39;101256.00;;;21.26;39.84
84188;BME280;74316;45.648;13.764;2023-12-20T02:41:05;101250.66;;;21.26;39.47
84188;BME280;74316;45.648;13.764;2023-12-20T02:43:30;101258.84;;;21.24;40.05
84188;BME280;74316;45.648;13.764;2023-12-20T02:45:56;101260.69;;;21.24;39.46
84188;BME280;74316;45.648;13.764;2023-12-20T02:48:21;101251.63;;;21.25;39.74
84188;BME280;74316;45.648;13.764;2023-12-20T02:50:47;101251.00;;;21.23;38.89
84188;BME280;74316;45.648;13.764;2023-12-20T02:53:14;101250.19;;;21.22;39.73
84188;BME280;74316;45.648;13.764;2023-12-20T02:55:39;101256.59;;;21.21;39.47
84188;BME280;74316;45.648;13.764;2023-12-20T02:58:05;101245.25;;;21.19;39.19
84188;BME280;74316;45.648;13.764;2023-12-20T03:00:30;101247.09;;;21.19;39.73
84188;BME280;74316;45.648;13.764;2023-12-20T03:02:55;101245.44;;;21.18;39.00
84188;BME280;74316;45.648;13.764;2023-12-20T03:05:21;101230.38;;;21.17;39.58
84188;BME280;74316;45.648;13.764;2023-12-20T03:07:46;101236.78;;;21.16;39.16
84188;BME280;74316;45.648;13.764;2023-12-20T03:10:12;101235.75;;;21.17;39.73
84188;BME280;74316;45.648;13.764;2023-12-20T03:12:37;101220.03;;;21.14;39.22
84188;BME280;74316;45.648;13.764;2023-12-20T03:15:03;101216.31;;;21.15;39.90
84188;BME280;74316;45.648;13.764;2023-12-20T03:17:28;101213.03;;;21.13;39.54
84188;BME280;74316;45.648;13.764;2023-12-20T03:19:53;101218.41;;;21.13;39.54
84188;BME280;74316;45.648;13.764;2023-12-20T03:22:19;101216.75;;;21.12;39.67
84188;BME280;74316;45.648;13.764;2023-12-20T03:24:44;101216.75;;;21.12;39.62
84188;BME280;74316;45.648;13.764;2023-12-20T03:27:10;101215.09;;;21.11;40.11
84188;BME280;74316;45.648;13.764;2023-12-20T03:29:35;101220.47;;;21.11;40.00
84188;BME280;74316;45.648;13.764;2023-12-20T03:32:00;101216.97;;;21.10;40.01
84188;BME280;74316;45.648;13.764;2023-12-20T03:34:26;101213.44;;;21.10;39.89
84188;BME280;74316;45.648;13.764;2023-12-20T03:36:52;101215.31;;;21.09;40.15
84188;BME280;74316;45.648;13.764;2023-12-20T03:39:17;101217.16;;;21.09;39.80
84188;BME280;74316;45.648;13.764;2023-12-20T03:41:42;101218.81;;;21.10;40.42
84188;BME280;74316;45.648;13.764;2023-12-20T03:44:08;101213.66;;;21.08;40.29
84188;BME280;74316;45.648;13.764;2023-12-20T03:46:33;101208.50;;;21.07;40.34
84188;BME280;74316;45.648;13.764;2023-12-20T03:48:59;101205.84;;;21.07;40.11
84188;BME280;74316;45.648;13.764;2023-12-20T03:51:24;101198.81;;;21.06;39.62
84188;BME280;74316;45.648;13.764;2023-12-20T03:53:49;101201.50;;;21.06;40.41
84188;BME280;74316;45.648;13.764;2023-12-20T03:56:15;101204.19;;;21.06;40.01
84188;BME280;74316;45.648;13.764;2023-12-20T03:58:40;101199.81;;;21.05;39.55
84188;BME280;74316;45.648;13.764;2023-12-20T04:01:09;101194.47;;;21.05;39.86
84188;BME280;74316;45.648;13.764;2023-12-20T04:03:37;101192.00;;;21.03;39.69
84188;BME280;74316;45.648;13.764;2023-12-20T04:06:02;101190.34;;;21.02;40.34
84188;BME280;74316;45.648;13.764;2023-12-20T04:08:28;101194.88;;;21.02;39.45
84188;BME280;74316;45.648;13.764;2023-12-20T04:10:53;101194.06;;;21.01;39.91
84188;BME280;74316;45.648;13.764;2023-12-20T04:13:18;101198.59;;;21.00;39.60
84188;BME280;74316;45.648;13.764;2023-12-20T04:15:44;101193.22;;;21.00;39.77
84188;BME280;74316;45.648;13.764;2023-12-20T04:18:09;101189.94;;;20.98;39.99
84188;BME280;74316;45.648;13.764;2023-12-20T04:20:35;101190.75;;;20.99;39.93
84188;BME280;74316;45.648;13.764;2023-12-20T04:23:00;101189.94;;;20.98;40.05
84188;BME280;74316;45.648;13.764;2023-12-20T04:25:26;101193.66;;;20.97;39.46
84188;BME280;74316;45.648;13.764;2023-12-20T04:27:51;101185.59;;;20.97;39.54
84188;BME280;74316;45.648;13.764;2023-12-20T04:30:17;101175.91;;;20.96;39.37
84188;BME280;74316;45.648;13.764;2023-12-20T04:32:42;101182.31;;;20.95;39.16
84188;BME280;74316;45.648;13.764;2023-12-20T04:35:07;101177.94;;;20.94;40.11
84188;BME280;74316;45.648;13.764;2023-12-20T04:37:33;101173.44;;;20.95;40.32
84188;BME280;74316;45.648;13.764;2023-12-20T04:39:59;101173.44;;;20.95;40.09
84188;BME280;74316;45.648;13.764;2023-12-20T04:42:24;101174.44;;;20.94;40.26
84188;BME280;74316;45.648;13.764;2023-12-20T04:44:50;101177.13;;;20.94;39.32
84188;BME280;74316;45.648;13.764;2023-12-20T04:47:15;101175.47;;;20.93;40.39
84188;BME280;74316;45.648;13.764;2023-12-20T04:49:41;101163.94;;;20.92;39.52
84188;BME280;74316;45.648;13.764;2023-12-20T04:52:06;101170.13;;;20.93;39.64
84188;BME280;74316;45.648;13.764;2023-12-20T04:54:32;101167.66;;;20.91;39.75
84188;BME280;74316;45.648;13.764;2023-12-20T04:56:57;101168.47;;;20.92;39.62
84188;BME280;74316;45.648;13.764;2023-12-20T04:59:22;101154.25;;;20.91;40.31
84188;BME280;74316;45.648;13.764;2023-12-20T05:01:48;101141.88;;;20.90;40.22
84188;BME280;74316;45.648;13.764;2023-12-20T05:04:13;101139.19;;;20.90;39.73
84188;BME280;74316;45.648;13.764;2023-12-20T05:06:38;101132.16;;;20.89;40.45
84188;BME280;74316;45.648;13.764;2023-12-20T05:09:04;101132.16;;;20.89;39.69
84188;BME280;74316;45.648;13.764;2023-12-20T05:11:29;101137.53;;;20.89;40.39
84188;BME280;74316;45.648;13.764;2023-12-20T05:13:55;101132.16;;;20.89;40.15
84188;BME280;74316;45.648;13.764;2023-12-20T05:16:21;101119.19;;;20.86;40.02
84188;BME280;74316;45.648;13.764;2023-12-20T05:18:48;101117.31;;;20.87;40.35
84188;BME280;74316;45.648;13.764;2023-12-20T05:21:14;101116.50;;;20.86;39.97
84188;BME280;74316;45.648;13.764;2023-12-20T05:23:40;101108.47;;;20.86;39.84
84188;BME280;74316;45.648;13.764;2023-12-20T05:26:05;101104.94;;;20.86;40.34
84188;BME280;74316;45.648;13.764;2023-12-20T05:28:31;101109.50;;;20.85;39.77
84188;BME280;74316;45.648;13.764;2023-12-20T05:30:57;101104.13;;;20.85;39.78
84188;BME280;74316;45.648;13.764;2023-12-20T05:33:22;101099.81;;;20.84;39.75
84188;BME280;74316;45.648;13.764;2023-12-20T05:35:48;101092.75;;;20.83;39.82
84188;BME280;74316;45.648;13.764;2023-12-20T05:38:13;101090.06;;;20.83;40.38
84188;BME280;74316;45.648;13.764;2023-12-20T05:40:38;101097.50;;;20.81;40.25
84188;BME280;74316;45.648;13.764;2023-12-20T05:43:04;101088.44;;;20.82;40.29
84188;BME280;74316;45.648;13.764;2023-12-20T05:45:29;101080.59;;;20.81;39.67
84188;BME280;74316;45.648;13.764;2023-12-20T05:47:55;101082.47;;;20.80;40.20
84188;BME280;74316;45.648;13.764;2023-12-20T05:50:20;101082.47;;;20.80;40.02
84188;BME280;74316;45.648;13.764;2023-12-20T05:52:46;101089.69;;;20.80;40.08
84188;BME280;74316;45.648;13.764;2023-12-20T05:55:11;101096.91;;;20.79;39.61
84188;BME280;74316;45.648;13.764;2023-12-20T05:57:37;101103.31;;;20.78;39.86
84188;BME280;74316;45.648;13.764;2023-12-20T06:00:03;101105.16;;;20.78;39.63
84188;BME280;74316;45.648;13.764;2023-12-20T06:02:28;101103.31;;;20.78;39.34
84188;BME280;74316;45.648;13.764;2023-12-20T06:04:54;101105.38;;;20.76;39.63
84188;BME280;74316;45.648;13.764;2023-12-20T06:07:19;101105.38;;;20.76;39.14
84188;BME280;74316;45.648;13.764;2023-12-20T06:09:45;101106.41;;;20.75;39.36
84188;BME280;74316;45.648;13.764;2023-12-20T06:12:11;101107.44;;;20.74;39.00
84188;BME280;74316;45.648;13.764;2023-12-20T06:14:36;101116.50;;;20.73;39.31
84188;BME280;74316;45.648;13.764;2023-12-20T06:17:02;101109.47;;;20.72;39.08
84188;BME280;74316;45.648;13.764;2023-12-20T06:19:28;101109.47;;;20.72;38.99
84188;BME280;74316;45.648;13.764;2023-12-20T06:21:53;101100.84;;;20.70;39.16
84188;BME280;74316;45.648;13.764;2023-12-20T06:24:18;101110.72;;;20.69;39.24
84188;BME280;74316;45.648;13.764;2023-12-20T06:26:44;101104.53;;;20.69;39.23
84188;BME280;74316;45.648;13.764;2023-12-20T06:29:09;101097.53;;;20.68;39.08
84188;BME280;74316;45.648;13.764;2023-12-20T06:31:35;101107.44;;;20.67;38.94
84188;BME280;74316;45.648;13.764;2023-12-20T06:34:00;101106.63;;;20.67;39.02
84188;BME280;74316;45.648;13.764;2023-12-20T06:36:26;101111.16;;;20.66;39.57
84188;BME280;74316;45.648;13.764;2023-12-20T06:38:52;101106.81;;;20.65;38.88
84188;BME280;74316;45.648;13.764;2023-12-20T06:41:17;101106.81;;;20.65;39.27
84188;BME280;74316;45.648;13.764;2023-12-20T06:43:43;101111.38;;;20.65;39.51
84188;BME280;74316;45.648;13.764;2023-12-20T06:46:08;101112.19;;;20.65;39.23
84188;BME280;74316;45.648;13.764;2023-12-20T06:48:34;101099.59;;;20.66;39.59
84188;BME280;74316;45.648;13.764;2023-12-20T06:51:00;101095.88;;;20.67;39.57
84188;BME280;74316;45.648;13.764;2023-12-20T06:53:27;101085.16;;;20.67;40.09
84188;BME280;74316;45.648;13.764;2023-12-20T06:55:53;101097.53;;;20.68;40.15
84188;BME280;74316;45.648;13.764;2023-12-20T06:58:18;101104.53;;;20.69;39.96
84188;BME280;74316;45.648;13.764;2023-12-20T07:00:43;101102.69;;;20.69;40.34
84188;BME280;74316;45.648;13.764;2023-12-20T07:03:09;101102.47;;;20.71;40.31
84188;BME280;74316;45.648;13.764;2023-12-20T07:05:35;101103.28;;;20.71;39.64
84188;BME280;74316;45.648;13.764;2023-12-20T07:08:00;101109.09;;;20.75;40.21
84188;BME280;74316;45.648;13.764;2023-12-20T07:10:25;101109.28;;;20.74;38.52
84188;BME280;74316;45.648;13.764;2023-12-20T07:12:51;101102.09;;;20.74;39.08
84188;BME280;74316;45.648;13.764;2023-12-20T07:15:17;101097.53;;;20.75;39.20
84188;BME280;74316;45.648;13.764;2023-12-20T07:17:43;101100.00;;;20.76;39.70
84188;BME280;74316;45.648;13.764;2023-12-20T07:20:09;101103.31;;;20.78;39.38
84188;BME280;74316;45.648;13.764;2023-12-20T07:22:36;101095.88;;;20.80;39.22
84188;BME280;74316;45.648;13.764;2023-12-20T07:25:01;101106.16;;;20.83;39.48
84188;BME280;74316;45.648;13.764;2023-12-20T07:27:27;101098.75;;;20.85;39.69
84188;BME280;74316;45.648;13.764;2023-12-20T07:29:52;101099.38;;;20.87;39.58
84188;BME280;74316;45.648;13.764;2023-12-20T07:32:18;101100.00;;;20.89;39.36
84188;BME280;74316;45.648;13.764;2023-12-20T07:34:44;101098.75;;;20.92;40.39
84188;BME280;74316;45.648;13.764;2023-12-20T07:37:09;101099.34;;;20.94;40.06
84188;BME280;74316;45.648;13.764;2023-12-20T07:39:37;101095.44;;;20.96;41.12
84188;BME280;74316;45.648;13.764;2023-12-20T07:42:03;101089.66;;;20.99;41.33
84188;BME280;74316;45.648;13.764;2023-12-20T07:44:28;101091.28;;;21.00;41.28
84188;BME280;74316;45.648;13.764;2023-12-20T07:46:53;101093.75;;;21.02;41.96
84188;BME280;74316;45.648;13.764;2023-12-20T07:49:19;101094.38;;;21.04;41.06
84188;BME280;74316;45.648;13.764;2023-12-20T07:51:45;101095.00;;;21.06;41.65
84188;BME280;74316;45.648;13.764;2023-12-20T07:54:10;101086.75;;;21.08;41.15
84188;BME280;74316;45.648;13.764;2023-12-20T07:56:36;101106.97;;;21.10;40.72
84188;BME280;74316;45.648;13.764;2023-12-20T07:59:01;101108.59;;;21.11;41.36
84188;BME280;74316;45.648;13.764;2023-12-20T08:01:26;101097.66;;;21.13;40.84
84188;BME280;74316;45.648;13.764;2023-12-20T08:03:52;101092.91;;;21.15;41.05
84188;BME280;74316;45.648;13.764;2023-12-20T08:06:17;101094.56;;;21.16;40.91
84188;BME280;74316;45.648;13.764;2023-12-20T08:08:43;101103.25;;;21.18;41.21
84188;BME280;74316;45.648;13.764;2023-12-20T08:11:08;101095.78;;;21.20;40.93
84188;BME280;74316;45.648;13.764;2023-12-20T08:13:34;101095.56;;;21.21;40.71
84188;BME280;74316;45.648;13.764;2023-12-20T08:15:59;101099.91;;;21.22;41.34
84188;BME280;74316;45.648;13.764;2023-12-20T08:18:24;101100.72;;;21.23;40.55
84188;BME280;74316;45.648;13.764;2023-12-20T08:20:50;101103.19;;;21.24;40.75
84188;BME280;74316;45.648;13.764;2023-12-20T08:23:18;101109.38;;;21.25;40.79
84188;BME280;74316;45.648;13.764;2023-12-20T08:25:43;101118.09;;;21.27;40.56
84188;BME280;74316;45.648;13.764;2023-12-20T08:28:09;101113.56;;;21.27;40.80
84188;BME280;74316;45.648;13.764;2023-12-20T08:30:34;101122.44;;;21.28;40.92
84188;BME280;74316;45.648;13.764;2023-12-20T08:33:00;101121.41;;;21.29;40.48
84188;BME280;74316;45.648;13.764;2023-12-20T08:35:26;101128.41;;;21.30;40.92
84188;BME280;74316;45.648;13.764;2023-12-20T08:37:51;101124.91;;;21.30;41.03
84188;BME280;74316;45.648;13.764;2023-12-20T08:40:17;101131.91;;;21.31;40.98
84188;BME280;74316;45.648;13.764;2023-12-20T08:42:42;101130.88;;;21.32;40.58
84188;BME280;74316;45.648;13.764;2023-12-20T08:45:08;101144.09;;;21.33;41.09
84188;BME280;74316;45.648;13.764;2023-12-20T08:47:33;101140.38;;;21.34;40.69
84188;BME280;74316;45.648;13.764;2023-12-20T08:49:59;101142.00;;;21.35;40.53
84188;BME280;74316;45.648;13.764;2023-12-20T08:52:25;101136.63;;;21.35;40.96
84188;BME280;74316;45.648;13.764;2023-12-20T08:54:52;101132.94;;;21.36;41.23
84188;BME280;74316;45.648;13.764;2023-12-20T08:57:20;101139.97;;;21.37;40.74
84188;BME280;74316;45.648;13.764;2023-12-20T08:59:47;101139.13;;;21.37;41.50
84188;BME280;74316;45.648;13.764;2023-12-20T09:02:13;101139.97;;;21.37;41.07
84188;BME280;74316;45.648;13.764;2023-12-20T09:04:39;101141.59;;;21.38;42.02
84188;BME280;74316;45.648;13.764;2023-12-20T09:07:04;101141.59;;;21.38;41.72
84188;BME280;74316;45.648;13.764;2023-12-20T09:09:29;101146.97;;;21.38;41.87
84188;BME280;74316;45.648;13.764;2023-12-20T09:11:57;101151.31;;;21.39;41.79
84188;BME280;74316;45.648;13.764;2023-12-20T09:14:22;101150.28;;;21.40;41.03
84188;BME280;74316;45.648;13.764;2023-12-20T09:16:48;101154.00;;;21.39;41.74
84188;BME280;74316;45.648;13.764;2023-12-20T09:19:16;101149.44;;;21.40;41.62
84188;BME280;74316;45.648;13.764;2023-12-20T09:21:42;101150.28;;;21.40;41.64
84188;BME280;74316;45.648;13.764;2023-12-20T09:24:07;101154.81;;;21.40;41.75
84188;BME280;74316;45.648;13.764;2023-12-20T09:26:34;101155.63;;;21.40;42.00
84188;BME280;74316;45.648;13.764;2023-12-20T09:28:59;101159.16;;;21.41;41.45
84188;BME280;74316;45.648;13.764;2023-12-20T09:31:25;101156.47;;;21.41;41.87
84188;BME280;74316;45.648;13.764;2023-12-20T09:33:50;101154.00;;;21.39;41.39
84188;BME280;74316;45.648;13.764;2023-12-20T09:36:15;101157.72;;;21.38;41.95
84188;BME280;74316;45.648;13.764;2023-12-20T09:38:41;101156.88;;;21.38;41.82
84188;BME280;74316;45.648;13.764;2023-12-20T09:41:07;101157.94;;;21.37;41.62
84188;BME280;74316;45.648;13.764;2023-12-20T09:43:35;101155.84;;;21.39;41.41
84188;BME280;74316;45.648;13.764;2023-12-20T09:46:05;101149.66;;;21.38;41.20
84188;BME280;74316;45.648;13.764;2023-12-20T09:48:31;101146.97;;;21.38;41.71
84188;BME280;74316;45.648;13.764;2023-12-20T09:50:56;101141.59;;;21.38;42.02
84188;BME280;74316;45.648;13.764;2023-12-20T09:53:22;101143.25;;;21.39;41.40
84188;BME280;74316;45.648;13.764;2023-12-20T09:55:57;101125.50;;;21.38;41.32
84188;BME280;74316;45.648;13.764;2023-12-20T09:58:23;101130.88;;;21.38;41.24
84188;BME280;74316;45.648;13.764;2023-12-20T10:00:50;101130.88;;;21.38;41.42
84188;BME280;74316;45.648;13.764;2023-12-20T10:03:16;101118.50;;;21.37;41.06
84188;BME280;74316;45.648;13.764;2023-12-20T10:05:43;101113.13;;;21.37;41.62
84188;BME280;74316;45.648;13.764;2023-12-20T10:08:09;101106.09;;;21.36;41.19
84188;BME280;74316;45.648;13.764;2023-12-20T10:10:35;101100.75;;;21.36;41.28
84188;BME280;74316;45.648;13.764;2023-12-20T10:13:10;101090.00;;;21.36;41.13
84188;BME280;74316;45.648;13.764;2023-12-20T10:15:37;101083.81;;;21.36;41.40
84188;BME280;74316;45.648;13.764;2023-12-20T10:18:04;101074.91;;;21.35;41.19
84188;BME280;74316;45.648;13.764;2023-12-20T10:20:30;101072.22;;;21.35;41.50
84188;BME280;74316;45.648;13.764;2023-12-20T10:22:57;101077.59;;;21.35;41.17
84188;BME280;74316;45.648;13.764;2023-12-20T10:25:23;101070.59;;;21.34;41.52
84188;BME280;74316;45.648;13.764;2023-12-20T10:27:50;101072.44;;;21.34;41.04
84188;BME280;74316;45.648;13.764;2023-12-20T10:30:16;101068.94;;;21.33;41.08
84188;BME280;74316;45.648;13.764;2023-12-20T10:32:41;101058.19;;;21.33;41.48
84188;BME280;74316;45.648;13.764;2023-12-20T10:35:08;101058.19;;;21.33;41.15
84188;BME280;74316;45.648;13.764;2023-12-20T10:37:37;101062.75;;;21.33;41.36
84188;BME280;74316;45.648;13.764;2023-12-20T10:40:04;101057.59;;;21.31;41.08
84188;BME280;74316;45.648;13.764;2023-12-20T10:42:31;101044.19;;;21.31;40.61
84188;BME280;74316;45.648;13.764;2023-12-20T10:44:59;101038.81;;;21.31;41.55
84188;BME280;74316;45.648;13.764;2023-12-20T10:47:25;101031.78;;;21.30;41.12
84188;BME280;74316;45.648;13.764;2023-12-20T10:49:52;101021.06;;;21.30;41.08
84188;BME280;74316;45.648;13.764;2023-12-20T10:52:19;101035.53;;;21.29;40.85
84188;BME280;74316;45.648;13.764;2023-12-20T10:54:45;101029.13;;;21.30;41.23
84188;BME280;74316;45.648;13.764;2023-12-20T10:57:11;101028.50;;;21.28;41.53
84188;BME280;74316;45.648;13.764;2023-12-20T10:59:37;101017.78;;;21.28;40.96
84188;BME280;74316;45.648;13.764;2023-12-20T11:02:04;101006.22;;;21.27;40.92
84188;BME280;74316;45.648;13.764;2023-12-20T11:04:44;101001.69;;;21.28;41.31
84188;BME280;74316;45.648;13.764;2023-12-20T11:07:23;101010.75;;;21.27;41.13
84188;BME280;74316;45.648;13.764;2023-12-20T11:09:58;101001.69;;;21.28;41.31
84188;BME280;74316;45.648;13.764;2023-12-20T11:12:37;100993.03;;;21.26;40.99
84188;BME280;74316;45.648;13.764;2023-12-20T11:15:06;100993.03;;;21.26;40.72
84188;BME280;74316;45.648;13.764;2023-12-20T11:17:33;100993.03;;;21.26;40.70
84188;BME280;74316;45.648;13.764;2023-12-20T11:22:25;100995.03;;;21.24;40.87
84188;BME280;74316;45.648;13.764;2023-12-20T11:24:52;101005.78;;;21.24;41.68
84188;BME280;74316;45.648;13.764;2023-12-20T11:27:19;100999.59;;;21.23;41.20
84188;BME280;74316;45.648;13.764;2023-12-20T11:30:04;100997.94;;;21.22;41.09
84188;BME280;74316;45.648;13.764;2023-12-20T11:32:34;100989.06;;;21.22;41.61
84188;BME280;74316;45.648;13.764;2023-12-20T11:35:01;100993.41;;;21.23;41.41
84188;BME280;74316;45.648;13.764;2023-12-20T11:37:31;100985.56;;;21.21;41.50
84188;BME280;74316;45.648;13.764;2023-12-20T11:40:05;100987.41;;;21.21;41.21
84188;BME280;74316;45.648;13.764;2023-12-20T11:42:39;100985.78;;;21.20;41.79
84188;BME280;74316;45.648;13.764;2023-12-20T11:45:08;100984.13;;;21.19;41.21
84188;BME280;74316;45.648;13.764;2023-12-20T11:47:33;100981.44;;;21.19;41.46
84188;BME280;74316;45.648;13.764;2023-12-20T11:50:00;100981.44;;;21.19;41.33
84188;BME280;74316;45.648;13.764;2023-12-20T11:52:29;100974.44;;;21.18;41.28
84188;BME280;74316;45.648;13.764;2023-12-20T11:54:54;100967.44;;;21.17;40.95
84188;BME280;74316;45.648;13.764;2023-12-20T11:57:19;100967.44;;;21.17;41.26
84188;BME280;74316;45.648;13.764;2023-12-20T11:59:45;100976.09;;;21.19;41.98
84188;BME280;74316;45.648;13.764;2023-12-20T12:02:12;100974.22;;;21.19;41.99
84188;BME280;74316;45.648;13.764;2023-12-20T12:04:37;100962.66;;;21.19;42.13
84188;BME280;74316;45.648;13.764;2023-12-20T12:07:03;100955.22;;;21.21;44.11
84188;BME280;74316;45.648;13.764;2023-12-20T12:09:28;100951.72;;;21.20;44.53
84188;BME280;74316;45.648;13.764;2023-12-20T12:11:54;100955.00;;;21.22;47.12
84188;BME280;74316;45.648;13.764;2023-12-20T12:14:20;100955.81;;;21.23;47.50
84188;BME280;74316;45.648;13.764;2023-12-20T12:16:46;100949.41;;;21.24;47.68
84188;BME280;74316;45.648;13.764;2023-12-20T12:19:24;100953.75;;;21.25;46.91
84188;BME280;74316;45.648;13.764;2023-12-20T12:21:51;100956.44;;;21.25;46.12
84188;BME280;74316;45.648;13.764;2023-12-20T12:24:20;100959.09;;;21.25;46.17
84188;BME280;74316;45.648;13.764;2023-12-20T12:26:51;100955.44;;;21.26;45.78
84188;BME280;74316;45.648;13.764;2023-12-20T12:29:17;100952.78;;;21.26;44.55
84188;BME280;74316;45.648;13.764;2023-12-20T12:31:42;100941.00;;;21.27;44.42
84188;BME280;74316;45.648;13.764;2023-12-20T12:34:08;100945.53;;;21.26;44.92
84188;BME280;74316;45.648;13.764;2023-12-20T12:36:34;100949.88;;;21.27;44.93